createdAt,value
2023-06-26T00:02:03.281Z,14.65
2023-06-26T00:04:29.713Z,10.60
2023-06-26T00:06:56.141Z,10.48
2023-06-26T00:09:22.495Z,9.90
2023-06-26T00:11:48.820Z,10.70
2023-06-26T00:14:15.296Z,11.93
2023-06-26T00:16:41.634Z,12.13
2023-06-26T00:19:07.988Z,11.20
2023-06-26T00:21:34.349Z,10.77
2023-06-26T00:24:00.787Z,12.88
2023-06-26T00:26:27.126Z,12.18
2023-06-26T00:28:53.461Z,10.82
2023-06-26T00:31:19.890Z,10.63
2023-06-26T00:33:46.234Z,12.50
2023-06-26T00:36:12.674Z,11.00
2023-06-26T00:38:40.034Z,12.23
2023-06-26T00:41:06.631Z,9.82
2023-06-26T00:43:33.000Z,11.02
2023-06-26T00:45:59.405Z,11.43
2023-06-26T00:48:25.952Z,12.65
2023-06-26T00:50:52.474Z,10.20
2023-06-26T00:53:19.162Z,11.68
2023-06-26T00:55:46.271Z,10.93
2023-06-26T01:00:40.044Z,13.30
2023-06-26T01:03:06.747Z,11.35
2023-06-26T01:05:33.207Z,10.40
2023-06-26T01:08:00.147Z,10.35
2023-06-26T01:10:26.769Z,11.90
2023-06-26T01:12:53.275Z,10.68
2023-06-26T01:15:19.674Z,11.63
2023-06-26T01:17:46.804Z,10.57
2023-06-26T01:22:57.818Z,11.48
2023-06-26T01:26:01.764Z,11.48
2023-06-26T01:28:29.058Z,12.00
2023-06-26T01:30:55.961Z,10.27
2023-06-26T01:33:22.625Z,9.82
2023-06-26T01:35:49.622Z,11.38
2023-06-26T01:38:20.664Z,9.32
2023-06-26T01:40:47.534Z,9.73
2023-06-26T01:43:16.965Z,10.40
2023-06-26T01:45:43.375Z,10.82
2023-06-26T01:48:13.785Z,11.13
2023-06-26T01:50:41.289Z,10.65
2023-06-26T01:53:19.030Z,10.45
2023-06-26T01:55:52.589Z,11.20
2023-06-26T01:58:23.526Z,12.30
2023-06-26T02:00:50.043Z,10.63
2023-06-26T02:03:16.472Z,10.35
2023-06-26T02:05:43.470Z,10.88
2023-06-26T02:08:10.138Z,11.82
2023-06-26T02:10:36.711Z,10.57
2023-06-26T02:13:03.485Z,10.77
2023-06-26T02:15:29.806Z,13.23
2023-06-26T02:17:56.252Z,10.75
2023-06-26T02:20:22.640Z,11.27
2023-06-26T02:22:49.113Z,10.90
2023-06-26T02:25:15.895Z,11.60
2023-06-26T02:27:42.220Z,11.27
2023-06-26T02:30:09.738Z,12.23
2023-06-26T02:32:36.127Z,10.80
2023-06-26T02:35:02.933Z,11.55
2023-06-26T02:37:29.404Z,11.77
2023-06-26T02:39:55.732Z,12.40
2023-06-26T02:42:22.072Z,11.85
2023-06-26T02:44:48.505Z,11.07
2023-06-26T02:47:14.938Z,12.00
2023-06-26T02:49:41.265Z,10.65
2023-06-26T02:52:07.745Z,10.68
2023-06-26T02:54:34.206Z,9.95
2023-06-26T02:57:00.541Z,10.57
2023-06-26T02:59:27.173Z,11.00
2023-06-26T03:01:53.523Z,11.52
2023-06-26T03:04:19.838Z,10.68
2023-06-26T03:06:46.385Z,13.73
2023-06-26T03:09:12.728Z,12.82
2023-06-26T03:11:44.110Z,11.70
2023-06-26T03:14:10.455Z,13.45
2023-06-26T03:16:36.873Z,11.40
2023-06-26T03:19:10.078Z,12.23
2023-06-26T03:21:36.461Z,12.05
2023-06-26T03:27:30.811Z,12.82
2023-06-26T03:29:57.173Z,11.45
2023-06-26T03:32:23.562Z,11.65
2023-06-26T03:34:49.967Z,10.55
2023-06-26T03:37:16.290Z,12.48
2023-06-26T03:39:42.710Z,10.07
2023-06-26T03:42:09.159Z,11.15
2023-06-26T03:44:35.543Z,11.00
2023-06-26T03:47:01.874Z,12.30
2023-06-26T03:49:28.332Z,11.15
2023-06-26T03:51:54.701Z,10.15
2023-06-26T03:54:21.143Z,10.27
2023-06-26T03:56:47.515Z,12.60
2023-06-26T03:59:13.965Z,12.35
2023-06-26T04:01:40.304Z,12.48
2023-06-26T04:04:06.844Z,13.05
2023-06-26T04:06:33.331Z,11.90
2023-06-26T04:09:00.009Z,10.65
2023-06-26T04:11:26.700Z,10.77
2023-06-26T04:13:53.052Z,14.52
2023-06-26T04:16:20.137Z,9.27
2023-06-26T04:18:46.621Z,9.75
2023-06-26T04:21:14.334Z,10.20
2023-06-26T04:23:41.903Z,9.05
2023-06-26T04:26:09.401Z,9.30
2023-06-26T04:28:36.825Z,8.77
2023-06-26T04:31:03.769Z,8.82
2023-06-26T04:35:56.814Z,8.93
2023-06-26T04:38:23.283Z,8.93
2023-06-26T04:40:50.166Z,8.35
2023-06-26T04:45:44.038Z,8.13
2023-06-26T04:48:10.526Z,8.02
2023-06-26T04:50:37.384Z,9.57
2023-06-26T04:53:03.971Z,9.02
2023-06-26T04:55:30.418Z,9.25
2023-06-26T04:57:56.805Z,9.38
2023-06-26T05:00:23.285Z,9.43
2023-06-26T05:02:49.739Z,8.57
2023-06-26T05:05:16.153Z,8.98
2023-06-26T05:07:42.867Z,9.15
2023-06-26T05:10:09.321Z,10.02
2023-06-26T05:12:35.676Z,8.20
2023-06-26T05:15:02.119Z,8.55
2023-06-26T05:17:28.514Z,9.52
2023-06-26T05:19:54.904Z,8.45
2023-06-26T05:22:21.987Z,10.35
2023-06-26T05:24:48.668Z,8.95
2023-06-26T05:27:15.289Z,9.18
2023-06-26T05:29:41.930Z,9.35
2023-06-26T05:32:09.201Z,9.07
2023-06-26T05:34:36.142Z,9.90
2023-06-26T05:37:02.699Z,8.07
2023-06-26T05:39:29.278Z,8.07
2023-06-26T05:44:36.103Z,9.43
2023-06-26T05:47:02.466Z,8.10
2023-06-26T05:49:28.867Z,8.55
2023-06-26T05:51:55.524Z,9.27
2023-06-26T05:54:22.136Z,9.05
2023-06-26T05:56:49.326Z,8.85
2023-06-26T05:59:17.931Z,8.23
2023-06-26T06:01:44.307Z,8.60
2023-06-26T06:07:43.926Z,8.63
2023-06-26T06:10:10.745Z,10.27
2023-06-26T06:12:42.217Z,7.40
2023-06-26T06:15:13.847Z,8.82
2023-06-26T06:17:40.223Z,8.60
2023-06-26T06:20:11.838Z,8.55
2023-06-26T06:22:38.227Z,8.63
2023-06-26T06:25:04.823Z,8.25
2023-06-26T06:27:31.247Z,10.55
2023-06-26T06:29:57.557Z,10.10
2023-06-26T06:32:23.916Z,9.65
2023-06-26T06:34:50.250Z,8.25
2023-06-26T06:37:16.599Z,8.13
2023-06-26T06:39:42.971Z,8.32
2023-06-26T06:42:09.359Z,8.48
2023-06-26T06:44:35.698Z,8.68
2023-06-26T06:47:02.114Z,9.07
2023-06-26T06:49:28.439Z,9.90
2023-06-26T06:51:54.796Z,7.97
2023-06-26T06:54:21.152Z,8.32
2023-06-26T06:56:47.512Z,8.52
2023-06-26T06:59:13.928Z,9.05
2023-06-26T07:01:41.368Z,8.57
2023-06-26T07:04:07.816Z,9.50
2023-06-26T07:06:34.180Z,10.38
2023-06-26T07:09:00.581Z,9.30
2023-06-26T07:11:26.951Z,10.82
2023-06-26T07:13:53.280Z,9.07
2023-06-26T07:16:19.754Z,7.65
2023-06-26T07:18:46.175Z,9.10
2023-06-26T07:21:12.564Z,10.30
2023-06-26T07:23:38.885Z,7.68
2023-06-26T07:26:05.358Z,8.25
2023-06-26T07:28:31.801Z,8.13
2023-06-26T07:30:58.177Z,8.10
2023-06-26T07:33:24.610Z,8.98
2023-06-26T07:35:50.942Z,8.55
2023-06-26T07:38:17.306Z,7.47
2023-06-26T07:40:43.689Z,8.50
2023-06-26T07:43:10.037Z,8.07
2023-06-26T07:45:36.384Z,7.97
2023-06-26T07:48:02.879Z,8.05
2023-06-26T07:50:29.262Z,8.02
2023-06-26T07:52:55.681Z,10.07
2023-06-26T07:55:22.062Z,8.10
2023-06-26T07:57:48.395Z,8.95
2023-06-26T08:00:15.290Z,8.23
2023-06-26T08:02:41.784Z,9.60
2023-06-26T08:05:08.531Z,8.43
2023-06-26T08:07:35.136Z,7.68
2023-06-26T08:10:01.474Z,7.00
2023-06-26T08:12:27.779Z,7.38
2023-06-26T08:14:54.173Z,7.38
2023-06-26T08:17:20.548Z,8.68
2023-06-26T08:19:46.967Z,6.82
2023-06-26T08:22:13.441Z,7.97
2023-06-26T08:24:39.777Z,8.02
2023-06-26T08:27:06.206Z,7.57
2023-06-26T08:29:32.535Z,7.13
2023-06-26T08:31:58.893Z,9.07
2023-06-26T08:34:25.796Z,8.48
2023-06-26T08:36:52.147Z,9.27
2023-06-26T08:39:18.516Z,8.20
2023-06-26T08:41:44.873Z,8.10
2023-06-26T08:44:11.384Z,7.90
2023-06-26T08:46:37.837Z,7.53
2023-06-26T08:49:22.497Z,7.65
2023-06-26T08:51:56.999Z,8.52
2023-06-26T08:54:31.913Z,8.05
2023-06-26T08:56:58.945Z,6.63
2023-06-26T08:59:26.027Z,7.68
2023-06-26T09:01:52.884Z,7.80
2023-06-26T09:04:19.342Z,8.13
2023-06-26T09:06:45.833Z,9.77
2023-06-26T09:09:12.323Z,7.93
2023-06-26T09:11:38.676Z,6.68
2023-06-26T09:14:05.210Z,9.05
2023-06-26T09:16:31.626Z,8.32
2023-06-26T09:18:58.016Z,9.77
2023-06-26T09:21:24.514Z,7.35
2023-06-26T09:23:51.248Z,7.53
2023-06-26T09:28:44.033Z,7.15
2023-06-26T09:31:10.427Z,8.02
2023-06-26T09:33:38.258Z,7.88
2023-06-26T09:36:08.794Z,6.88
2023-06-26T09:38:36.498Z,7.20
2023-06-26T09:41:04.170Z,7.50
2023-06-26T09:43:30.848Z,7.00
2023-06-26T09:48:23.529Z,7.07
2023-06-26T09:51:09.870Z,7.82
2023-06-26T09:53:36.778Z,6.65
2023-06-26T09:56:07.485Z,6.72
2023-06-26T09:58:34.448Z,8.82
2023-06-26T10:01:01.245Z,6.78
2023-06-26T10:03:27.740Z,8.38
2023-06-26T10:05:55.249Z,8.55
2023-06-26T10:08:22.078Z,9.10
2023-06-26T10:10:50.002Z,7.15
2023-06-26T10:13:21.902Z,8.63
2023-06-26T10:15:51.247Z,6.60
2023-06-26T10:18:19.071Z,6.72
2023-06-26T10:20:49.514Z,6.10
2023-06-26T10:23:16.175Z,7.65
2023-06-26T10:25:46.403Z,8.30
2023-06-26T10:28:13.731Z,7.38
2023-06-26T10:30:40.958Z,7.60
2023-06-26T10:33:08.793Z,6.63
2023-06-26T10:35:43.451Z,7.53
2023-06-26T10:38:10.042Z,7.43
2023-06-26T10:40:44.887Z,7.82
2023-06-26T10:43:13.237Z,8.77
2023-06-26T10:45:50.371Z,7.13
2023-06-26T10:48:17.151Z,6.78
2023-06-26T10:50:44.279Z,6.28
2023-06-26T10:53:23.440Z,8.25
2023-06-26T10:55:57.999Z,6.45
2023-06-26T10:58:39.761Z,6.75
2023-06-26T11:01:12.126Z,6.30
2023-06-26T11:03:40.008Z,7.07
2023-06-26T11:06:16.563Z,7.55
2023-06-26T11:08:47.520Z,7.22
2023-06-26T11:11:14.216Z,7.43
2023-06-26T11:16:10.105Z,7.70
2023-06-26T11:18:36.490Z,7.93
2023-06-26T11:21:10.255Z,7.22
2023-06-26T11:23:37.697Z,7.25
2023-06-26T11:26:20.941Z,5.30
2023-06-26T11:28:57.797Z,7.15
2023-06-26T11:31:35.510Z,6.72
2023-06-26T11:34:05.258Z,6.13
2023-06-26T11:36:32.440Z,5.85
2023-06-26T11:39:01.332Z,5.70
2023-06-26T11:41:29.580Z,6.45
2023-06-26T11:43:56.459Z,6.47
2023-06-26T11:46:23.722Z,6.50
2023-06-26T11:48:50.519Z,6.22
2023-06-26T11:51:17.053Z,5.70
2023-06-26T11:53:44.710Z,5.60
2023-06-26T11:56:18.720Z,5.45
2023-06-26T11:59:07.548Z,5.97
2023-06-26T12:01:37.761Z,5.03
2023-06-26T12:04:06.059Z,4.82
2023-06-26T12:06:36.227Z,7.63
2023-06-26T12:09:04.500Z,5.40
2023-06-26T12:11:31.348Z,6.45
2023-06-26T12:13:59.237Z,5.40
2023-06-26T12:16:25.611Z,6.30
2023-06-26T12:18:52.110Z,5.03
2023-06-26T12:21:40.267Z,4.40
2023-06-26T12:24:09.101Z,5.65
2023-06-26T12:26:36.780Z,5.63
2023-06-26T12:29:11.034Z,5.50
2023-06-26T12:31:49.385Z,6.15
2023-06-26T12:34:18.561Z,5.00
2023-06-26T12:36:46.682Z,5.38
2023-06-26T12:39:13.494Z,6.40
2023-06-26T12:41:52.606Z,5.55
2023-06-26T12:44:19.644Z,6.20
2023-06-26T12:46:47.512Z,5.72
2023-06-26T12:49:30.051Z,8.20
2023-06-26T12:51:58.209Z,5.82
2023-06-26T12:54:24.806Z,5.47
2023-06-26T12:59:17.415Z,4.95
2023-06-26T13:01:43.778Z,5.28
2023-06-26T13:04:10.176Z,4.85
2023-06-26T13:06:37.376Z,6.03
2023-06-26T13:09:03.908Z,5.82
2023-06-26T13:14:09.291Z,5.88
2023-06-26T13:16:37.321Z,5.03
2023-06-26T13:19:03.693Z,6.40
2023-06-26T13:21:30.135Z,6.60
2023-06-26T13:23:57.149Z,6.72
2023-06-26T13:26:35.947Z,6.35
2023-06-26T13:29:04.162Z,6.18
2023-06-26T13:31:30.616Z,7.03
2023-06-26T13:33:59.412Z,6.72
2023-06-26T13:36:26.181Z,6.07
2023-06-26T13:38:52.853Z,6.60
2023-06-26T13:41:19.198Z,7.70
2023-06-26T13:43:45.553Z,6.70
2023-06-26T13:46:12.487Z,7.15
2023-06-26T13:48:38.886Z,7.50
2023-06-26T13:51:05.328Z,7.07
2023-06-26T13:53:33.661Z,6.18
2023-06-26T13:56:00.965Z,6.63
2023-06-26T13:58:28.007Z,7.40
2023-06-26T14:00:54.463Z,6.68
2023-06-26T14:03:21.103Z,6.65
2023-06-26T14:05:47.653Z,6.57
2023-06-26T14:08:14.557Z,6.15
2023-06-26T14:10:41.205Z,8.07
2023-06-26T14:13:07.805Z,6.75
2023-06-26T14:15:34.345Z,7.03
2023-06-26T14:20:27.113Z,6.65
2023-06-26T14:22:53.467Z,6.40
2023-06-26T14:25:19.824Z,6.90
2023-06-26T14:27:46.134Z,6.30
2023-06-26T14:30:12.947Z,6.47
2023-06-26T14:32:39.334Z,9.38
2023-06-26T14:35:05.974Z,8.20
2023-06-26T14:37:32.375Z,6.63
2023-06-26T14:39:59.350Z,6.18
2023-06-26T14:42:26.248Z,7.00
2023-06-26T14:44:53.166Z,6.80
2023-06-26T14:47:20.166Z,6.68
2023-06-26T14:52:12.741Z,7.75
2023-06-26T14:54:40.173Z,8.18
2023-06-26T14:57:07.785Z,7.40
2023-06-26T14:59:34.283Z,8.43
2023-06-26T15:02:00.866Z,7.45
2023-06-26T15:06:53.979Z,6.97
2023-06-26T15:09:20.313Z,7.28
2023-06-26T15:11:46.694Z,8.95
2023-06-26T15:14:13.584Z,10.20
2023-06-26T15:16:40.069Z,7.95
2023-06-26T15:21:32.690Z,7.47
2023-06-26T15:23:59.038Z,8.95
2023-06-26T15:26:25.338Z,7.50
2023-06-26T15:28:51.654Z,9.77
2023-06-26T15:31:18.357Z,9.32
2023-06-26T15:33:44.722Z,8.60
2023-06-26T15:36:11.061Z,8.45
2023-06-26T15:38:37.521Z,10.60
2023-06-26T15:41:03.893Z,9.23
2023-06-26T15:43:30.371Z,9.38
2023-06-26T15:45:56.730Z,12.43
2023-06-26T15:48:23.117Z,11.20
2023-06-26T15:50:49.549Z,7.57
2023-06-26T15:53:17.450Z,9.75
2023-06-26T15:55:43.805Z,8.70
2023-06-26T15:58:10.267Z,11.02
2023-06-26T16:00:36.589Z,8.93
2023-06-26T16:03:02.946Z,9.23
2023-06-26T16:05:29.393Z,8.77
2023-06-26T16:07:58.152Z,8.38
2023-06-26T16:10:24.789Z,10.43
2023-06-26T16:12:51.157Z,12.32
2023-06-26T16:15:17.641Z,10.15
2023-06-26T16:17:43.972Z,9.65
2023-06-26T16:20:10.992Z,8.90
2023-06-26T16:22:37.396Z,10.10
2023-06-26T16:25:03.883Z,17.85
2023-06-26T16:27:30.202Z,8.50
2023-06-26T16:29:56.568Z,9.60
2023-06-26T16:32:22.966Z,9.05
2023-06-26T16:34:49.301Z,8.63
2023-06-26T16:37:15.725Z,7.85
2023-06-26T16:39:42.078Z,7.90
2023-06-26T16:42:08.594Z,7.85
2023-06-26T16:44:35.072Z,9.30
2023-06-26T16:47:01.642Z,8.80
2023-06-26T16:51:55.697Z,8.38
2023-06-26T16:54:22.011Z,7.30
2023-06-26T16:56:48.403Z,8.45
2023-06-26T16:59:14.716Z,6.45
2023-06-26T17:01:41.101Z,8.45
2023-06-26T17:04:07.628Z,6.20
2023-06-26T17:06:33.980Z,6.55
2023-06-26T17:09:00.544Z,6.47
2023-06-26T17:11:26.905Z,6.80
2023-06-26T17:13:53.257Z,6.18
2023-06-26T17:16:19.635Z,5.80
2023-06-26T17:18:45.955Z,6.30
2023-06-26T17:21:12.335Z,6.60
2023-06-26T17:23:38.669Z,6.38
2023-06-26T17:26:05.082Z,6.55
2023-06-26T17:28:31.523Z,6.18
2023-06-26T17:30:58.140Z,7.75
2023-06-26T17:35:50.869Z,8.73
2023-06-26T17:38:17.261Z,7.22
2023-06-26T17:40:43.714Z,7.85
2023-06-26T17:43:10.040Z,8.27
2023-06-26T17:45:36.477Z,9.98
2023-06-26T17:48:02.994Z,6.35
2023-06-26T17:52:55.808Z,9.57
2023-06-26T17:55:22.237Z,9.10
2023-06-26T17:57:48.617Z,8.93
2023-06-26T18:00:17.629Z,7.43
2023-06-26T18:02:44.132Z,9.60
2023-06-26T18:05:10.744Z,9.05
2023-06-26T18:07:43.976Z,9.40
2023-06-26T18:10:20.302Z,9.98
2023-06-26T18:15:12.996Z,10.20
2023-06-26T18:17:39.410Z,11.15
2023-06-26T18:20:06.510Z,8.88
2023-06-26T18:22:32.878Z,8.65
2023-06-26T18:24:59.226Z,8.38
2023-06-26T18:27:25.596Z,8.00
2023-06-26T18:29:51.991Z,7.82
2023-06-26T18:32:19.703Z,8.68
2023-06-26T18:34:46.271Z,7.82
2023-06-26T18:37:12.611Z,9.95
2023-06-26T18:39:38.992Z,8.45
2023-06-26T18:42:05.774Z,8.35
2023-06-26T18:46:58.497Z,8.45
2023-06-26T18:49:24.880Z,6.90
2023-06-26T18:51:51.306Z,8.38
2023-06-26T18:54:17.664Z,9.35
2023-06-26T18:56:44.836Z,8.98
2023-06-26T18:59:11.447Z,7.95
2023-06-26T19:01:37.872Z,8.70
2023-06-26T19:04:04.268Z,8.13
2023-06-26T19:06:30.608Z,9.32
2023-06-26T19:08:57.061Z,6.45
2023-06-26T19:11:23.418Z,6.68
2023-06-26T19:13:50.102Z,8.45
2023-06-26T19:16:16.529Z,7.22
2023-06-26T19:18:42.983Z,7.97
2023-06-26T19:21:09.607Z,8.27
2023-06-26T19:23:37.542Z,8.30
2023-06-26T19:26:03.937Z,7.32
2023-06-26T19:28:30.378Z,5.65
2023-06-26T19:30:56.793Z,5.93
2023-06-26T19:33:23.269Z,6.63
2023-06-26T19:35:49.600Z,6.50
2023-06-26T19:38:16.081Z,6.68
2023-06-26T19:40:42.451Z,5.30
2023-06-26T19:43:08.968Z,4.88
2023-06-26T19:45:35.337Z,7.68
2023-06-26T19:48:02.011Z,5.40
2023-06-26T19:50:28.494Z,5.90
2023-06-26T19:52:54.863Z,5.30
2023-06-26T19:55:21.375Z,4.13
2023-06-26T19:57:48.219Z,4.03
2023-06-26T20:00:15.176Z,6.00
2023-06-26T20:05:08.870Z,4.85
2023-06-26T20:07:35.415Z,4.72
2023-06-26T20:10:01.940Z,5.63
2023-06-26T20:12:28.369Z,5.60
2023-06-26T20:14:54.696Z,4.47
2023-06-26T20:17:21.162Z,3.95
2023-06-26T20:19:47.512Z,5.18
2023-06-26T20:22:13.874Z,4.85
2023-06-26T20:24:40.348Z,4.10
2023-06-26T20:27:06.796Z,5.35
2023-06-26T20:29:33.644Z,7.78
2023-06-26T20:32:00.088Z,6.25
2023-06-26T20:34:26.478Z,4.18
2023-06-26T20:36:52.806Z,3.63
2023-06-26T20:39:19.195Z,4.53
2023-06-26T20:41:46.356Z,5.28
2023-06-26T20:44:13.093Z,3.53
2023-06-26T20:46:39.657Z,4.43
2023-06-26T20:49:06.295Z,4.07
2023-06-26T20:51:32.997Z,16.75
2023-06-26T20:53:59.545Z,4.65
2023-06-26T20:56:26.065Z,3.67
2023-06-26T20:58:52.559Z,4.45
2023-06-26T21:01:19.955Z,4.25
2023-06-26T21:03:46.473Z,6.00
2023-06-26T21:06:12.882Z,4.35
2023-06-26T21:08:39.268Z,5.03
2023-06-26T21:11:05.733Z,4.13
2023-06-26T21:13:32.078Z,4.07
2023-06-26T21:15:58.414Z,3.22
2023-06-26T21:18:24.780Z,3.53
2023-06-26T21:20:51.129Z,4.38
2023-06-26T21:23:17.507Z,4.47
2023-06-26T21:25:43.858Z,3.25
2023-06-26T21:28:10.295Z,9.60
2023-06-26T21:30:36.710Z,4.00
2023-06-26T21:33:03.166Z,4.57
2023-06-26T21:35:42.687Z,4.47
2023-06-26T21:38:10.337Z,4.32
2023-06-26T21:40:36.923Z,5.78
2023-06-26T21:43:03.281Z,4.45
2023-06-26T21:45:29.691Z,4.55
2023-06-26T21:47:56.085Z,4.05
2023-06-26T21:50:22.476Z,3.72
2023-06-26T21:52:48.887Z,3.90
2023-06-26T21:55:15.228Z,3.83
2023-06-26T21:57:41.541Z,3.35
2023-06-26T22:00:08.250Z,4.38
2023-06-26T22:02:34.691Z,5.40
2023-06-26T22:05:01.057Z,3.85
2023-06-26T22:07:27.492Z,3.10
2023-06-26T22:09:54.044Z,3.53
2023-06-26T22:12:20.384Z,4.00
2023-06-26T22:14:46.772Z,3.67
2023-06-26T22:17:13.437Z,5.30
2023-06-26T22:19:39.765Z,5.40
2023-06-26T22:22:06.168Z,2.97
2023-06-26T22:24:32.607Z,5.88
2023-06-26T22:26:58.939Z,3.53
2023-06-26T22:29:25.273Z,4.03
2023-06-26T22:31:51.717Z,3.30
2023-06-26T22:34:18.082Z,3.65
2023-06-26T22:36:44.511Z,6.45
2023-06-26T22:39:11.529Z,4.32
2023-06-26T22:44:04.194Z,5.25
2023-06-26T22:46:30.588Z,4.25
2023-06-26T22:48:57.036Z,4.10
2023-06-26T22:51:23.397Z,4.80
2023-06-26T22:53:49.843Z,6.03
2023-06-26T22:56:16.167Z,4.60
2023-06-26T22:58:42.528Z,3.45
2023-06-26T23:01:08.857Z,2.70
2023-06-26T23:03:35.291Z,4.80
2023-06-26T23:06:01.749Z,2.78
2023-06-26T23:08:28.139Z,6.18
2023-06-26T23:10:54.585Z,4.30
2023-06-26T23:13:21.288Z,3.85
2023-06-26T23:15:48.828Z,3.47
2023-06-26T23:18:15.172Z,3.03
2023-06-26T23:20:41.510Z,3.03
2023-06-26T23:23:07.888Z,2.40
2023-06-26T23:25:34.236Z,4.25
2023-06-26T23:28:02.518Z,2.70
2023-06-26T23:30:29.998Z,3.22
2023-06-26T23:32:57.004Z,3.50
2023-06-26T23:37:49.951Z,2.90
2023-06-26T23:40:16.335Z,6.45
2023-06-26T23:42:42.703Z,3.85
2023-06-26T23:45:09.351Z,2.17
2023-06-26T23:47:35.809Z,3.05
2023-06-26T23:50:02.211Z,4.22
2023-06-26T23:52:28.666Z,2.95
2023-06-26T23:54:54.979Z,4.93
2023-06-26T23:57:21.329Z,4.03
2023-06-26T23:59:47.733Z,2.63
